Oberpfaffenhofen Airport EDMO

Flugplatz Daten

Name: Oberpfaffenhofen Airport

Ident: EDMO

Lat: 48,08140182

Long: 11,28310013

Platzhöhe: 1947 ft

IataCode: OBF

City:

Metar

2021/10/20 13:50
EDMO 201350Z 24013KT CAVOK 18/09 Q1015

Taf

Gewünschte Webcam nicht vorhanden? Dann fügen Sie eine hinzu. Sie wird dann so schnell wie möglich freigeschaltet
Url: Title: